createdAt,value
2022-08-17T00:00:05.089Z,98646.95
2022-08-17T00:02:25.571Z,98646.48
2022-08-17T00:04:31.716Z,98643.89
2022-08-17T00:06:37.034Z,98641.88
2022-08-17T00:08:44.362Z,98644.09
2022-08-17T00:10:50.394Z,98640.60
2022-08-17T00:13:05.144Z,98642.20
2022-08-17T00:15:15.341Z,98638.89
2022-08-17T00:17:20.132Z,98637.30
2022-08-17T00:19:34.340Z,98639.90
2022-08-17T00:22:31.783Z,98636.50
2022-08-17T00:24:12.490Z,98634.75
2022-08-17T00:26:44.215Z,98633.21
2022-08-17T00:28:43.845Z,98632.43
2022-08-17T00:30:53.465Z,98633.83
2022-08-17T00:33:15.526Z,98633.41
2022-08-17T00:35:23.637Z,98634.18
2022-08-17T00:37:31.308Z,98630.94
2022-08-17T00:39:36.148Z,98635.64
2022-08-17T00:41:42.530Z,98635.02
2022-08-17T00:43:49.502Z,98634.29
2022-08-17T00:45:55.176Z,98636.54
2022-08-17T00:48:00.001Z,98637.27
2022-08-17T00:50:07.832Z,98633.83
2022-08-17T00:52:17.756Z,98633.32
2022-08-17T00:54:25.251Z,98633.09
2022-08-17T00:56:33.599Z,98632.47
2022-08-17T00:58:38.851Z,98634.59
2022-08-17T01:00:48.017Z,98630.69
2022-08-17T01:02:54.756Z,98629.11
2022-08-17T01:04:59.914Z,98633.02
2022-08-17T01:07:06.310Z,98633.52
2022-08-17T01:09:11.253Z,98636.94
2022-08-17T01:11:16.124Z,98638.27
2022-08-17T01:13:21.835Z,98638.21
2022-08-17T01:15:27.068Z,98637.12
2022-08-17T01:17:32.953Z,98637.33
2022-08-17T01:19:40.306Z,98634.78
2022-08-17T01:21:50.655Z,98635.91
2022-08-17T01:23:56.388Z,98637.80
2022-08-17T01:26:03.214Z,98638.73
2022-08-17T01:28:11.089Z,98634.43
2022-08-17T01:30:57.437Z,98635.55
2022-08-17T01:33:04.273Z,98639.19
2022-08-17T01:35:10.358Z,98639.39
2022-08-17T01:37:16.027Z,98644.45
2022-08-17T01:39:33.077Z,98646.90
2022-08-17T01:41:40.147Z,98645.60
2022-08-17T01:43:49.217Z,98649.11
2022-08-17T01:46:02.829Z,98646.89
2022-08-17T01:48:09.589Z,98650.13
2022-08-17T01:50:18.714Z,98649.40
2022-08-17T01:52:25.171Z,98652.14
2022-08-17T01:54:29.996Z,98650.77
2022-08-17T01:56:37.575Z,98653.99
2022-08-17T01:58:43.747Z,98654.61
2022-08-17T02:01:00.982Z,98655.52
2022-08-17T02:03:09.379Z,98656.04
2022-08-17T02:05:14.322Z,98658.27
2022-08-17T02:07:19.270Z,98660.86
2022-08-17T02:09:31.593Z,98653.41
2022-08-17T02:11:38.700Z,98651.84
2022-08-17T02:13:44.756Z,98655.14
2022-08-17T02:15:49.506Z,98655.73
2022-08-17T02:17:54.552Z,98660.55
2022-08-17T02:19:59.688Z,98656.71
2022-08-17T02:22:04.879Z,98656.48
2022-08-17T02:24:13.255Z,98655.26
2022-08-17T02:26:25.726Z,98659.49
2022-08-17T02:28:31.148Z,98658.48
2022-08-17T02:31:02.049Z,98658.70
2022-08-17T02:33:04.150Z,98658.80
2022-08-17T02:35:11.165Z,98659.98
2022-08-17T02:37:16.328Z,98657.58
2022-08-17T02:39:21.110Z,98658.70
2022-08-17T02:41:25.911Z,98659.31
2022-08-17T02:43:30.720Z,98658.05
2022-08-17T02:45:35.921Z,98665.33
2022-08-17T02:47:41.883Z,98662.27
2022-08-17T02:49:49.413Z,98663.09
2022-08-17T02:52:02.482Z,98663.19
2022-08-17T02:54:40.104Z,98661.18
2022-08-17T02:56:32.083Z,98661.11
2022-08-17T02:58:37.092Z,98663.55
2022-08-17T03:00:45.451Z,98663.25
2022-08-17T03:02:51.180Z,98661.70
2022-08-17T03:04:56.093Z,98661.94
2022-08-17T03:07:01.089Z,98658.73
2022-08-17T03:09:06.374Z,98661.37
2022-08-17T03:11:11.565Z,98662.76
2022-08-17T03:13:16.382Z,98664.55
2022-08-17T03:15:28.720Z,98663.50
2022-08-17T03:17:36.877Z,98667.86
2022-08-17T03:19:42.923Z,98671.11
2022-08-17T03:21:54.762Z,98673.27
2022-08-17T03:24:00.056Z,98670.02
2022-08-17T03:26:05.005Z,98668.73
2022-08-17T03:28:17.099Z,98665.38
2022-08-17T03:30:22.957Z,98666.08
2022-08-17T03:32:31.293Z,98666.39
2022-08-17T03:34:36.110Z,98663.67
2022-08-17T03:36:40.800Z,98666.30
2022-08-17T03:38:45.739Z,98666.64
2022-08-17T03:40:56.997Z,98665.99
2022-08-17T03:43:09.327Z,98667.91
2022-08-17T03:45:16.087Z,98673.06
2022-08-17T03:47:26.858Z,98673.43
2022-08-17T03:49:31.597Z,98673.16
2022-08-17T03:51:36.351Z,98676.89
2022-08-17T03:53:50.891Z,98675.96
2022-08-17T03:56:00.637Z,98672.47
2022-08-17T03:58:05.409Z,98671.72
2022-08-17T04:00:11.681Z,98670.46
2022-08-17T04:02:26.173Z,98670.69
2022-08-17T04:04:31.013Z,98666.48
2022-08-17T04:06:35.887Z,98668.42
2022-08-17T04:08:40.614Z,98673.25
2022-08-17T04:10:45.508Z,98678.22
2022-08-17T04:12:52.912Z,98682.80
2022-08-17T04:14:58.109Z,98684.20
2022-08-17T04:17:02.863Z,98684.21
2022-08-17T04:19:07.893Z,98685.79
2022-08-17T04:21:12.713Z,98686.04
2022-08-17T04:23:20.645Z,98688.48
2022-08-17T04:25:26.213Z,98684.36
2022-08-17T04:27:31.015Z,98686.27
2022-08-17T04:29:54.779Z,98685.05
2022-08-17T04:32:01.829Z,98686.73
2022-08-17T04:34:09.451Z,98684.55
2022-08-17T04:36:15.643Z,98688.31
2022-08-17T04:38:23.483Z,98689.16
2022-08-17T04:40:28.790Z,98689.34
2022-08-17T04:42:33.524Z,98688.63
2022-08-17T04:44:38.268Z,98686.27
2022-08-17T04:46:44.464Z,98684.16
2022-08-17T04:48:51.047Z,98684.27
2022-08-17T04:50:55.920Z,98686.02
2022-08-17T04:53:01.099Z,98686.80
2022-08-17T04:55:07.449Z,98690.48
2022-08-17T04:57:12.120Z,98693.64
2022-08-17T04:59:19.420Z,98697.66
2022-08-17T05:01:26.133Z,98695.90
2022-08-17T05:03:32.754Z,98698.84
2022-08-17T05:05:43.795Z,98696.09
2022-08-17T05:07:55.108Z,98693.30
2022-08-17T05:09:59.977Z,98696.77
2022-08-17T05:12:08.371Z,98691.80
2022-08-17T05:14:13.865Z,98696.42
2022-08-17T05:16:19.979Z,98699.38
2022-08-17T05:18:25.554Z,98701.66
2022-08-17T05:20:30.763Z,98702.70
2022-08-17T05:22:35.435Z,98699.83
2022-08-17T05:24:50.439Z,98701.70
2022-08-17T05:27:02.608Z,98702.12
2022-08-17T05:29:11.445Z,98705.02
2022-08-17T05:31:17.113Z,98703.57
2022-08-17T05:33:24.203Z,98700.33
2022-08-17T05:35:30.549Z,98702.05
2022-08-17T05:37:40.682Z,98698.22
2022-08-17T05:39:45.452Z,98695.80
2022-08-17T05:41:50.134Z,98695.70
2022-08-17T05:43:56.495Z,98700.73
2022-08-17T05:46:06.192Z,98698.86
2022-08-17T05:48:11.053Z,98700.59
2022-08-17T05:50:27.090Z,98702.38
2022-08-17T05:52:42.949Z,98699.51
2022-08-17T05:55:01.308Z,98697.24
2022-08-17T05:57:26.094Z,98696.45
2022-08-17T05:59:44.605Z,98699.70
2022-08-17T06:01:58.194Z,98700.56
2022-08-17T06:04:16.554Z,98700.45
2022-08-17T06:06:35.650Z,98697.10
2022-08-17T06:08:51.528Z,98696.38
2022-08-17T06:11:06.884Z,98693.14
2022-08-17T06:13:18.497Z,98696.42
2022-08-17T06:15:32.506Z,98698.29
2022-08-17T06:17:38.016Z,98694.27
2022-08-17T06:19:47.364Z,98692.36
2022-08-17T06:21:54.940Z,98695.86
2022-08-17T06:24:05.998Z,98698.20
2022-08-17T06:26:16.129Z,98698.78
2022-08-17T06:28:27.562Z,98699.56
2022-08-17T06:30:59.406Z,98700.73
2022-08-17T06:33:12.930Z,98701.43
2022-08-17T06:35:32.019Z,98702.98
2022-08-17T06:37:55.896Z,98706.26
2022-08-17T06:40:14.609Z,98704.63
2022-08-17T06:43:02.864Z,98708.63
2022-08-17T06:45:08.643Z,98712.80
2022-08-17T06:47:28.150Z,98711.05
2022-08-17T06:49:45.594Z,98713.71
2022-08-17T06:51:54.414Z,98711.23
2022-08-17T06:54:07.109Z,98709.52
2022-08-17T06:56:14.039Z,98713.27
2022-08-17T06:58:23.581Z,98707.02
2022-08-17T07:00:43.074Z,98708.33
2022-08-17T07:02:53.542Z,98709.38
2022-08-17T07:05:00.847Z,98708.08
2022-08-17T07:07:10.481Z,98712.46
2022-08-17T07:09:26.154Z,98713.64
2022-08-17T07:11:37.698Z,98714.48
2022-08-17T07:13:51.447Z,98703.45
2022-08-17T07:16:04.820Z,98709.02
2022-08-17T07:18:10.365Z,98708.77
2022-08-17T07:20:18.464Z,98707.76
2022-08-17T07:22:57.730Z,98711.39
2022-08-17T07:25:04.894Z,98708.02
2022-08-17T07:27:13.982Z,98706.98
2022-08-17T07:29:20.063Z,98708.13
2022-08-17T07:31:27.443Z,98705.56
2022-08-17T07:33:35.283Z,98709.45
2022-08-17T07:35:44.072Z,98710.95
2022-08-17T07:38:25.370Z,98714.15
2022-08-17T07:40:34.693Z,98709.21
2022-08-17T07:42:43.121Z,98713.16
2022-08-17T07:44:53.898Z,98714.17
2022-08-17T07:46:59.234Z,98712.98
2022-08-17T07:49:25.269Z,98713.53
2022-08-17T07:51:40.688Z,98709.15
2022-08-17T07:53:45.511Z,98707.38
2022-08-17T07:55:51.401Z,98705.67
2022-08-17T07:58:00.860Z,98709.27
2022-08-17T08:00:18.503Z,98707.27
2022-08-17T08:02:33.687Z,98710.60
2022-08-17T08:04:59.589Z,98710.00
2022-08-17T08:07:12.010Z,98700.92
2022-08-17T08:09:35.297Z,98701.67
2022-08-17T08:11:44.132Z,98703.41
2022-08-17T08:13:49.193Z,98707.19
2022-08-17T08:15:55.660Z,98706.06
2022-08-17T08:18:02.376Z,98704.55
2022-08-17T08:20:37.750Z,98705.38
2022-08-17T08:22:55.952Z,98705.79
2022-08-17T08:25:11.747Z,98703.25
2022-08-17T08:27:26.253Z,98697.09
2022-08-17T08:29:44.069Z,98696.92
2022-08-17T08:32:11.934Z,98702.17
2022-08-17T08:35:00.559Z,98701.13
2022-08-17T08:37:15.419Z,98700.54
2022-08-17T08:39:31.015Z,98699.91
2022-08-17T08:41:46.319Z,98699.84
2022-08-17T08:44:02.130Z,98699.23
2022-08-17T08:46:19.973Z,98698.83
2022-08-17T08:48:53.026Z,98700.10
2022-08-17T08:51:10.030Z,98695.90
2022-08-17T08:53:28.022Z,98700.78
2022-08-17T08:55:45.161Z,98702.65
2022-08-17T08:57:57.507Z,98707.98
2022-08-17T09:00:19.752Z,98709.26
2022-08-17T09:02:40.842Z,98712.52
2022-08-17T09:05:13.822Z,98710.23
2022-08-17T09:07:31.305Z,98710.17
2022-08-17T09:09:49.540Z,98706.17
2022-08-17T09:12:05.367Z,98703.92
2022-08-17T09:14:21.459Z,98707.59
2022-08-17T09:16:33.399Z,98704.30
2022-08-17T09:19:03.583Z,98706.83
2022-08-17T09:21:18.221Z,98708.67
2022-08-17T09:23:32.349Z,98707.80
2022-08-17T09:25:47.047Z,98711.09
2022-08-17T09:27:56.425Z,98712.86
2022-08-17T09:30:11.081Z,98709.71
2022-08-17T09:32:22.507Z,98709.52
2022-08-17T09:34:35.322Z,98714.14
2022-08-17T09:36:50.135Z,98715.98
2022-08-17T09:39:01.949Z,98716.30
2022-08-17T09:41:15.282Z,98711.77
2022-08-17T09:43:27.946Z,98708.12
2022-08-17T09:45:40.624Z,98702.48
2022-08-17T09:47:52.093Z,98700.73
2022-08-17T09:50:02.612Z,98696.16
2022-08-17T09:52:14.574Z,98696.05
2022-08-17T09:54:44.542Z,98692.98
2022-08-17T09:57:28.085Z,98692.25
2022-08-17T09:59:44.565Z,98694.81
2022-08-17T10:01:55.652Z,98693.35
2022-08-17T10:04:16.144Z,98689.84
2022-08-17T10:06:35.138Z,98691.37
2022-08-17T10:08:44.905Z,98686.39
2022-08-17T10:11:03.176Z,98686.67
2022-08-17T10:13:21.164Z,98686.34
2022-08-17T10:15:49.125Z,98691.30
2022-08-17T10:18:16.287Z,98687.46
2022-08-17T10:20:28.157Z,98680.27
2022-08-17T10:22:38.334Z,98677.42
2022-08-17T10:25:21.881Z,98675.28
2022-08-17T10:27:17.501Z,98671.95
2022-08-17T10:29:26.969Z,98674.53
2022-08-17T10:31:41.609Z,98674.92
2022-08-17T10:33:55.907Z,98670.86
2022-08-17T10:36:10.794Z,98668.61
2022-08-17T10:38:39.042Z,98669.45
2022-08-17T10:40:54.317Z,98665.16
2022-08-17T10:43:05.213Z,98665.52
2022-08-17T10:45:19.509Z,98662.80
2022-08-17T10:47:25.997Z,98660.50
2022-08-17T10:49:34.274Z,98657.23
2022-08-17T10:51:41.080Z,98653.41
2022-08-17T10:53:59.737Z,98654.40
2022-08-17T10:56:23.743Z,98658.21
2022-08-17T10:58:47.475Z,98656.27
2022-08-17T11:01:01.393Z,98644.38
2022-08-17T11:03:18.728Z,98645.31
2022-08-17T11:05:57.257Z,98641.09
2022-08-17T11:08:35.246Z,98644.04
2022-08-17T11:11:08.727Z,98642.67
2022-08-17T11:13:24.145Z,98641.67
2022-08-17T11:15:42.182Z,98642.02
2022-08-17T11:18:01.316Z,98639.73
2022-08-17T11:20:21.135Z,98642.26
2022-08-17T11:22:56.487Z,98635.13
2022-08-17T11:25:15.638Z,98631.11
2022-08-17T11:27:29.696Z,98629.91
2022-08-17T11:29:38.708Z,98626.13
2022-08-17T11:31:56.798Z,98623.40
2022-08-17T11:34:12.747Z,98623.71
2022-08-17T11:36:33.888Z,98624.33
2022-08-17T11:38:51.012Z,98622.61
2022-08-17T11:41:11.433Z,98620.20
2022-08-17T11:43:43.105Z,98618.66
2022-08-17T11:46:00.097Z,98621.89
2022-08-17T11:48:27.678Z,98614.96
2022-08-17T11:50:46.517Z,98603.10
2022-08-17T11:53:00.307Z,98604.02
2022-08-17T11:55:33.520Z,98594.89
2022-08-17T11:57:59.796Z,98600.83
2022-08-17T12:00:08.609Z,98601.38
2022-08-17T12:02:48.383Z,98598.30
2022-08-17T12:05:23.675Z,98600.24
2022-08-17T12:07:31.046Z,98593.73
2022-08-17T12:09:43.750Z,98593.13
2022-08-17T12:12:11.927Z,98595.26
2022-08-17T12:14:32.234Z,98592.16
2022-08-17T12:16:57.300Z,98585.84
2022-08-17T12:19:04.345Z,98581.18
2022-08-17T12:21:42.793Z,98587.36
2022-08-17T12:23:56.066Z,98583.50
2022-08-17T12:26:09.954Z,98585.46
2022-08-17T12:28:39.037Z,98579.99
2022-08-17T12:30:56.475Z,98579.91
2022-08-17T12:33:01.637Z,98581.23
2022-08-17T12:35:18.983Z,98580.68
2022-08-17T12:37:26.861Z,98571.20
2022-08-17T12:39:34.051Z,98569.88
2022-08-17T12:41:41.496Z,98567.27
2022-08-17T12:43:57.837Z,98563.58
2022-08-17T12:46:13.102Z,98569.75
2022-08-17T12:48:26.000Z,98570.08
2022-08-17T12:50:30.742Z,98563.81
2022-08-17T12:52:40.086Z,98564.42
2022-08-17T12:54:53.170Z,98564.90
2022-08-17T12:57:14.391Z,98564.65
2022-08-17T12:59:29.919Z,98564.00
2022-08-17T13:01:40.881Z,98565.79
2022-08-17T13:03:51.226Z,98563.84
2022-08-17T13:06:02.617Z,98562.40
2022-08-17T13:08:16.597Z,98562.55
2022-08-17T13:10:31.618Z,98559.21
2022-08-17T13:12:38.956Z,98558.55
2022-08-17T13:14:48.715Z,98558.49
2022-08-17T13:16:56.142Z,98558.33
2022-08-17T13:19:12.428Z,98556.54
2022-08-17T13:21:27.694Z,98551.62
2022-08-17T13:23:34.215Z,98547.09
2022-08-17T13:25:40.223Z,98547.05
2022-08-17T13:27:52.537Z,98543.41
2022-08-17T13:30:00.944Z,98544.69
2022-08-17T13:32:20.137Z,98543.98
2022-08-17T13:35:12.835Z,98542.46
2022-08-17T13:37:30.375Z,98543.30
2022-08-17T13:39:44.000Z,98542.19
2022-08-17T13:41:50.313Z,98543.59
2022-08-17T13:43:55.116Z,98536.95
2022-08-17T13:46:10.543Z,98536.52
2022-08-17T13:48:28.067Z,98536.56
2022-08-17T13:50:36.958Z,98531.50
2022-08-17T13:52:48.809Z,98525.29
2022-08-17T13:54:59.221Z,98527.59
2022-08-17T13:57:06.857Z,98525.59
2022-08-17T13:59:15.081Z,98525.35
2022-08-17T14:01:34.997Z,98523.05
2022-08-17T14:03:39.751Z,98530.45
2022-08-17T14:05:48.524Z,98532.06
2022-08-17T14:07:57.194Z,98530.86
2022-08-17T14:10:05.148Z,98528.35
2022-08-17T14:12:13.357Z,98530.95
2022-08-17T14:14:19.145Z,98534.31
2022-08-17T14:16:23.848Z,98535.39
2022-08-17T14:18:54.312Z,98529.91
2022-08-17T14:20:54.715Z,98527.04
2022-08-17T14:22:59.470Z,98531.09
2022-08-17T14:25:05.009Z,98532.19
2022-08-17T14:27:13.475Z,98532.59
2022-08-17T14:29:18.230Z,98531.25
2022-08-17T14:31:26.942Z,98532.02
2022-08-17T14:33:31.780Z,98532.67
2022-08-17T14:35:36.560Z,98533.41
2022-08-17T14:37:41.824Z,98530.86
2022-08-17T14:39:47.084Z,98532.03
2022-08-17T14:41:51.959Z,98526.40
2022-08-17T14:43:57.693Z,98520.96
2022-08-17T14:46:02.941Z,98520.74
2022-08-17T14:48:08.196Z,98517.88
2022-08-17T14:50:15.377Z,98524.49
2022-08-17T14:52:24.505Z,98523.52
2022-08-17T14:54:33.858Z,98525.15
2022-08-17T14:56:39.249Z,98526.91
2022-08-17T14:58:44.283Z,98529.87
2022-08-17T15:00:51.948Z,98529.70
2022-08-17T15:02:59.741Z,98527.30
2022-08-17T15:05:06.629Z,98528.02
2022-08-17T15:07:14.115Z,98525.44
2022-08-17T15:09:18.925Z,98528.08
2022-08-17T15:11:26.805Z,98531.13
2022-08-17T15:13:32.138Z,98532.34
2022-08-17T15:15:36.871Z,98527.65
2022-08-17T15:17:44.644Z,98531.30
2022-08-17T15:19:50.656Z,98530.45
2022-08-17T15:21:55.614Z,98527.09
2022-08-17T15:24:00.522Z,98531.02
2022-08-17T15:26:08.261Z,98530.81
2022-08-17T15:28:13.524Z,98531.39
2022-08-17T15:30:19.423Z,98528.76
2022-08-17T15:32:29.488Z,98530.07
2022-08-17T15:34:34.217Z,98531.77
2022-08-17T15:36:39.163Z,98529.92
2022-08-17T15:38:54.629Z,98526.96
2022-08-17T15:41:00.007Z,98526.95
2022-08-17T15:43:08.076Z,98527.94
2022-08-17T15:45:14.859Z,98528.87
2022-08-17T15:47:20.862Z,98527.81
2022-08-17T15:49:25.781Z,98527.95
2022-08-17T15:51:32.883Z,98530.90
2022-08-17T15:53:38.564Z,98527.79
2022-08-17T15:55:43.246Z,98526.86
2022-08-17T15:57:47.965Z,98531.13
2022-08-17T15:59:55.087Z,98535.23
2022-08-17T16:03:12.996Z,98532.80
2022-08-17T16:04:43.883Z,98531.95
2022-08-17T16:06:51.699Z,98527.42
2022-08-17T16:08:57.088Z,98526.94
2022-08-17T16:11:02.454Z,98525.23
2022-08-17T16:13:17.163Z,98515.91
2022-08-17T16:15:22.976Z,98519.86
2022-08-17T16:17:39.098Z,98518.60
2022-08-17T16:19:48.605Z,98521.22
2022-08-17T16:21:53.353Z,98522.86
2022-08-17T16:24:00.847Z,98521.80
2022-08-17T16:26:05.802Z,98523.79
2022-08-17T16:28:10.930Z,98525.21
2022-08-17T16:30:18.181Z,98525.44
2022-08-17T16:32:31.847Z,98524.69
2022-08-17T16:34:40.701Z,98524.58
2022-08-17T16:36:51.803Z,98524.79
2022-08-17T16:39:00.586Z,98521.39
2022-08-17T16:41:06.368Z,98522.51
2022-08-17T16:43:11.270Z,98526.61
2022-08-17T16:45:19.715Z,98524.40
2022-08-17T16:47:24.641Z,98526.86
2022-08-17T16:49:37.117Z,98527.78
2022-08-17T16:51:42.860Z,98527.59
2022-08-17T16:53:47.903Z,98526.98
2022-08-17T16:56:04.522Z,98527.05
2022-08-17T16:58:09.525Z,98530.55
2022-08-17T17:00:21.184Z,98531.61
2022-08-17T17:02:36.104Z,98535.03
2022-08-17T17:04:46.015Z,98533.29
2022-08-17T17:06:59.240Z,98534.89
2022-08-17T17:09:10.590Z,98531.75
2022-08-17T17:11:21.565Z,98525.74
2022-08-17T17:13:31.093Z,98527.54
2022-08-17T17:15:46.367Z,98529.84
2022-08-17T17:17:52.557Z,98528.58
2022-08-17T17:20:05.990Z,98529.76
2022-08-17T17:22:16.053Z,98534.87
2022-08-17T17:24:32.980Z,98534.63
2022-08-17T17:26:53.244Z,98536.65
2022-08-17T17:29:12.348Z,98532.56
2022-08-17T17:31:20.465Z,98531.42
2022-08-17T17:33:36.133Z,98528.91
2022-08-17T17:35:48.206Z,98532.50
2022-08-17T17:37:59.383Z,98530.18
2022-08-17T17:40:12.444Z,98529.82
2022-08-17T17:42:21.582Z,98531.16
2022-08-17T17:44:30.186Z,98532.65
2022-08-17T17:46:38.309Z,98533.76
2022-08-17T17:48:43.199Z,98536.56
2022-08-17T17:50:54.168Z,98535.49
2022-08-17T17:53:05.293Z,98535.55
2022-08-17T17:55:21.710Z,98535.33
2022-08-17T17:57:35.516Z,98531.12
2022-08-17T17:59:50.079Z,98531.11
2022-08-17T18:02:05.046Z,98530.28
2022-08-17T18:04:25.389Z,98531.20
2022-08-17T18:06:41.942Z,98531.45
2022-08-17T18:09:04.598Z,98537.20
2022-08-17T18:11:24.173Z,98536.73
2022-08-17T18:13:40.858Z,98541.77
2022-08-17T18:15:47.930Z,98545.74
2022-08-17T18:18:20.244Z,98545.95
2022-08-17T18:20:36.069Z,98552.42
2022-08-17T18:22:50.412Z,98555.09
2022-08-17T18:24:56.492Z,98557.91
2022-08-17T18:27:02.890Z,98557.36
2022-08-17T18:29:28.692Z,98556.20
2022-08-17T18:31:33.565Z,98558.77
2022-08-17T18:33:40.320Z,98557.38
2022-08-17T18:35:59.217Z,98557.65
2022-08-17T18:38:27.561Z,98557.48
2022-08-17T18:40:41.551Z,98557.86
2022-08-17T18:42:57.210Z,98557.02
2022-08-17T18:45:02.306Z,98553.79
2022-08-17T18:47:20.597Z,98560.60
2022-08-17T18:49:29.030Z,98568.11
2022-08-17T18:51:40.260Z,98570.77
2022-08-17T18:54:05.537Z,98571.77
2022-08-17T18:56:39.285Z,98569.98
2022-08-17T18:58:58.616Z,98571.46
2022-08-17T19:01:12.594Z,98572.02
2022-08-17T19:03:26.189Z,98572.19
2022-08-17T19:05:38.833Z,98571.07
2022-08-17T19:07:46.906Z,98567.48
2022-08-17T19:09:56.816Z,98563.69
2022-08-17T19:12:04.943Z,98570.23
2022-08-17T19:14:13.506Z,98574.77
2022-08-17T19:16:24.931Z,98577.27
2022-08-17T19:18:34.653Z,98576.95
2022-08-17T19:20:46.152Z,98572.15
2022-08-17T19:23:13.694Z,98574.33
2022-08-17T19:25:22.856Z,98574.85
2022-08-17T19:27:41.868Z,98573.73
2022-08-17T19:29:56.569Z,98572.17
2022-08-17T19:32:01.656Z,98574.23
2022-08-17T19:34:06.685Z,98571.85
2022-08-17T19:36:27.853Z,98571.14
2022-08-17T19:38:40.562Z,98574.20
2022-08-17T19:41:01.884Z,98571.60
2022-08-17T19:43:16.699Z,98567.39
2022-08-17T19:45:34.487Z,98570.08
2022-08-17T19:47:55.139Z,98565.77
2022-08-17T19:50:08.932Z,98569.16
2022-08-17T19:52:35.897Z,98561.48
2022-08-17T19:54:53.270Z,98552.77
2022-08-17T19:57:04.853Z,98555.83
2022-08-17T19:59:16.327Z,98555.15
2022-08-17T20:01:31.178Z,98555.27
2022-08-17T20:03:54.249Z,98553.59
2022-08-17T20:06:12.920Z,98548.69
2022-08-17T20:08:23.412Z,98553.77
2022-08-17T20:10:44.280Z,98561.10
2022-08-17T20:12:56.353Z,98564.38
2022-08-17T20:15:08.724Z,98563.02
2022-08-17T20:17:14.440Z,98558.48
2022-08-17T20:19:27.907Z,98565.19
2022-08-17T20:21:39.239Z,98567.15
2022-08-17T20:23:56.426Z,98571.06
2022-08-17T20:26:15.926Z,98566.11
2022-08-17T20:28:28.390Z,98562.40
2022-08-17T20:30:36.835Z,98563.00
2022-08-17T20:32:55.103Z,98562.89
2022-08-17T20:35:24.845Z,98564.52
2022-08-17T20:37:33.448Z,98568.30
2022-08-17T20:39:41.259Z,98564.39
2022-08-17T20:42:18.606Z,98565.30
2022-08-17T20:44:33.977Z,98563.85
2022-08-17T20:46:56.897Z,98565.14
2022-08-17T20:49:20.022Z,98564.80
2022-08-17T20:51:32.779Z,98562.02
2022-08-17T20:54:26.489Z,98559.86
2022-08-17T20:56:53.760Z,98562.23
2022-08-17T20:58:58.751Z,98565.13
2022-08-17T21:01:13.971Z,98572.96
2022-08-17T21:03:51.804Z,98581.98
2022-08-17T21:06:03.395Z,98591.84
2022-08-17T21:08:28.779Z,98608.04
2022-08-17T21:10:38.316Z,98611.08
2022-08-17T21:12:55.958Z,98618.44
2022-08-17T21:15:07.008Z,98618.55
2022-08-17T21:17:36.667Z,98618.13
2022-08-17T21:20:10.407Z,98615.67
2022-08-17T21:22:28.560Z,98621.02
2022-08-17T21:24:51.424Z,98623.21
2022-08-17T21:27:04.337Z,98633.70
2022-08-17T21:29:30.970Z,98635.77
2022-08-17T21:31:42.684Z,98643.45
2022-08-17T21:34:27.084Z,98642.73
2022-08-17T21:36:32.163Z,98643.51
2022-08-17T21:38:40.858Z,98644.91
2022-08-17T21:40:49.305Z,98643.48
2022-08-17T21:42:57.732Z,98642.81
2022-08-17T21:45:10.891Z,98639.02
2022-08-17T21:47:22.070Z,98638.95
2022-08-17T21:49:29.244Z,98637.60
2022-08-17T21:51:47.034Z,98640.73
2022-08-17T21:53:57.056Z,98635.81
2022-08-17T21:56:02.732Z,98635.33
2022-08-17T21:58:27.499Z,98631.77
2022-08-17T22:00:34.412Z,98627.34
2022-08-17T22:02:41.167Z,98623.43
2022-08-17T22:04:58.635Z,98613.43
2022-08-17T22:07:06.682Z,98609.92
2022-08-17T22:09:22.200Z,98608.97
2022-08-17T22:11:27.173Z,98605.56
2022-08-17T22:13:32.792Z,98605.96
2022-08-17T22:15:39.866Z,98616.27
2022-08-17T22:17:47.918Z,98627.60
2022-08-17T22:19:55.301Z,98635.22
2022-08-17T22:22:07.802Z,98633.94
2022-08-17T22:24:19.900Z,98629.71
2022-08-17T22:26:47.143Z,98623.92
2022-08-17T22:28:57.758Z,98624.21
2022-08-17T22:31:04.438Z,98624.27
2022-08-17T22:33:38.744Z,98625.88
2022-08-17T22:35:43.991Z,98622.27
2022-08-17T22:37:48.868Z,98625.77
2022-08-17T22:40:00.576Z,98623.55
2022-08-17T22:42:13.361Z,98619.65
2022-08-17T22:44:22.388Z,98614.36
2022-08-17T22:46:27.374Z,98608.44
2022-08-17T22:48:37.974Z,98606.41
2022-08-17T22:50:42.777Z,98607.38
2022-08-17T22:52:58.327Z,98610.21
2022-08-17T22:55:12.082Z,98608.17
2022-08-17T22:57:18.916Z,98603.96
2022-08-17T22:59:42.976Z,98599.67
2022-08-17T23:02:11.118Z,98601.73
2022-08-17T23:04:33.494Z,98598.89
2022-08-17T23:06:40.597Z,98594.68
2022-08-17T23:08:45.386Z,98586.23
2022-08-17T23:10:52.920Z,98588.80
2022-08-17T23:12:59.660Z,98589.31
2022-08-17T23:15:10.866Z,98584.46
2022-08-17T23:17:15.573Z,98585.46
2022-08-17T23:19:22.255Z,98575.79
2022-08-17T23:21:28.727Z,98572.84
2022-08-17T23:23:34.068Z,98566.42
2022-08-17T23:25:38.942Z,98567.84
2022-08-17T23:27:43.781Z,98564.66
2022-08-17T23:29:48.651Z,98564.57
2022-08-17T23:31:53.965Z,98560.52
2022-08-17T23:33:59.165Z,98562.67
2022-08-17T23:36:04.719Z,98559.10
2022-08-17T23:38:10.643Z,98559.46
2022-08-17T23:40:15.674Z,98563.04
2022-08-17T23:42:23.659Z,98565.31
2022-08-17T23:44:29.127Z,98563.42
2022-08-17T23:46:33.947Z,98563.67
2022-08-17T23:48:39.526Z,98564.26
2022-08-17T23:50:44.501Z,98564.58
2022-08-17T23:52:49.268Z,98567.34
2022-08-17T23:54:54.117Z,98560.86
2022-08-17T23:56:58.909Z,98560.52
2022-08-17T23:59:03.925Z,98556.16
